createdAt,value
2024-01-29T00:00:33.338Z,24.3
2024-01-29T00:06:31.945Z,24.4
2024-01-29T00:12:29.715Z,24.8
2024-01-29T00:18:24.445Z,24.9
2024-01-29T00:24:19.038Z,24.6
2024-01-29T00:29:57.540Z,24.3
2024-01-29T00:35:58.438Z,24
2024-01-29T00:41:53.345Z,24.4
2024-01-29T00:47:47.114Z,24.7
2024-01-29T00:53:34.369Z,24.5
2024-01-29T00:59:29.323Z,24.1
2024-01-29T01:05:30.784Z,23.8
2024-01-29T01:11:24.739Z,24
2024-01-29T01:17:03.367Z,24.5
2024-01-29T01:22:59.195Z,24.4
2024-01-29T01:28:53.430Z,24
2024-01-29T01:34:48.396Z,23.8
2024-01-29T01:40:44.356Z,23.8
2024-01-29T01:46:40.234Z,24
2024-01-29T01:52:42.307Z,24.2
2024-01-29T01:58:36.550Z,24.4
2024-01-29T02:04:35.204Z,24.3
2024-01-29T02:10:30.607Z,23.9
2024-01-29T02:16:24.821Z,23.6
2024-01-29T02:22:19.616Z,23.6
2024-01-29T02:28:13.805Z,24
2024-01-29T02:34:10.782Z,24.1
2024-01-29T02:40:05.046Z,23.7
2024-01-29T02:45:44.052Z,24
2024-01-29T02:51:40.318Z,24.1
2024-01-29T02:57:34.152Z,23.9
2024-01-29T03:03:29.135Z,23.5
2024-01-29T03:09:28.647Z,23.3
2024-01-29T03:15:24.328Z,23.7
2024-01-29T03:21:04.543Z,24.1
2024-01-29T03:27:01.990Z,23.9
2024-01-29T03:32:55.956Z,23.7
2024-01-29T03:38:50.564Z,24.1
2024-01-29T03:44:29.436Z,24.1
2024-01-29T03:50:24.465Z,23.6
2024-01-29T03:56:21.551Z,24
2024-01-29T04:02:18.455Z,24.1
2024-01-29T04:07:59.672Z,23.7
2024-01-29T04:13:53.523Z,23.8
2024-01-29T04:19:54.000Z,24
2024-01-29T04:25:50.913Z,24.1
2024-01-29T04:31:30.275Z,24.3
2024-01-29T04:37:25.649Z,24.2
2024-01-29T04:43:20.619Z,23.7
2024-01-29T04:48:59.849Z,23.9
2024-01-29T04:54:40.004Z,24.2
2024-01-29T05:00:03.784Z,24.1
2024-01-29T05:05:47.863Z,23.6
2024-01-29T05:11:27.858Z,23.3
2024-01-29T05:16:50.867Z,23.4
2024-01-29T05:22:32.701Z,23.9
2024-01-29T05:28:28.529Z,23.9
2024-01-29T05:34:17.404Z,23.6
2024-01-29T05:39:56.047Z,23.7
2024-01-29T05:45:34.397Z,24
2024-01-29T05:51:14.272Z,23.9
2024-01-29T05:57:08.582Z,23.6
2024-01-29T06:02:47.762Z,24
2024-01-29T06:08:30.210Z,24
2024-01-29T06:14:11.637Z,23.6
2024-01-29T06:20:08.769Z,23.8
2024-01-29T06:26:11.711Z,24.1
2024-01-29T06:31:53.681Z,23.9
2024-01-29T06:37:51.272Z,23.6
2024-01-29T06:43:47.563Z,24
2024-01-29T06:49:42.307Z,24
2024-01-29T06:55:37.669Z,24
2024-01-29T07:01:31.960Z,24.1
2024-01-29T07:07:32.283Z,23.9
2024-01-29T07:13:27.227Z,23.5
2024-01-29T07:19:21.864Z,23.2
2024-01-29T07:25:17.660Z,23.6
2024-01-29T07:30:58.425Z,24
2024-01-29T07:36:54.128Z,23.9
2024-01-29T07:42:51.201Z,23.5
2024-01-29T07:48:46.149Z,24
2024-01-29T07:54:42.780Z,23.9
2024-01-29T08:00:38.066Z,23.5
2024-01-29T08:06:35.136Z,23.8
2024-01-29T08:12:30.504Z,24.1
2024-01-29T08:18:25.931Z,23.8
2024-01-29T08:24:26.460Z,23.8
2024-01-29T08:30:20.801Z,24.1
2024-01-29T08:36:18.211Z,23.9
2024-01-29T08:42:13.343Z,23.6
2024-01-29T08:48:09.925Z,24.1
2024-01-29T08:54:08.523Z,24.1
2024-01-29T09:00:05.627Z,23.6
2024-01-29T09:06:01.482Z,23.9
2024-01-29T09:12:07.903Z,24.1
2024-01-29T09:18:03.843Z,23.6
2024-01-29T09:23:42.746Z,23.9
2024-01-29T09:29:38.337Z,24.1
2024-01-29T09:35:47.843Z,23.8
2024-01-29T09:41:41.737Z,23.8
2024-01-29T09:47:38.811Z,24.3
2024-01-29T09:53:06.289Z,24.1
2024-01-29T09:59:03.421Z,23.8
2024-01-29T10:05:01.673Z,24.1
2024-01-29T10:10:41.121Z,24.2
2024-01-29T10:16:35.454Z,23.7
2024-01-29T10:22:31.288Z,24
2024-01-29T10:28:11.848Z,24.1
2024-01-29T10:33:35.982Z,23.7
2024-01-29T10:38:46.832Z,23.9
2024-01-29T10:44:48.245Z,24.2
2024-01-29T10:50:28.050Z,24.1
2024-01-29T10:56:09.017Z,23.8
2024-01-29T11:01:52.408Z,24.1
2024-01-29T11:07:39.980Z,24.2
2024-01-29T11:13:21.691Z,24.1
2024-01-29T11:19:02.182Z,24.4
2024-01-29T11:25:04.285Z,24.1
2024-01-29T11:30:43.514Z,23.7
2024-01-29T11:36:54.414Z,23.4
2024-01-29T11:42:49.021Z,23.1
2024-01-29T11:48:47.276Z,23.1
2024-01-29T11:54:55.471Z,23.5
2024-01-29T12:00:37.566Z,23.5
2024-01-29T12:06:17.643Z,23.2
2024-01-29T12:12:16.220Z,23
2024-01-29T12:18:12.243Z,22.9
2024-01-29T12:24:09.705Z,23.3
2024-01-29T12:30:04.762Z,23.3
2024-01-29T12:35:46.983Z,23
2024-01-29T12:41:44.236Z,22.9
2024-01-29T12:47:38.470Z,22.8
2024-01-29T12:53:34.787Z,23.2
2024-01-29T12:59:14.947Z,23.1
2024-01-29T13:05:00.118Z,22.8
2024-01-29T13:10:59.872Z,23.1
2024-01-29T13:16:54.459Z,23.1
2024-01-29T13:22:50.089Z,22.9
2024-01-29T13:28:31.538Z,23.1
2024-01-29T13:34:29.842Z,23
2024-01-29T13:40:10.181Z,22.9
2024-01-29T13:46:08.934Z,23.1
2024-01-29T13:52:04.760Z,22.9
2024-01-29T13:58:01.212Z,22.9
2024-01-29T14:03:56.657Z,23.1
2024-01-29T14:09:53.720Z,22.9
2024-01-29T14:16:03.285Z,22.8
2024-01-29T14:22:00.399Z,22.7
2024-01-29T14:27:55.270Z,22.6
2024-01-29T14:33:54.153Z,22.5
2024-01-29T14:39:53.291Z,22.4
2024-01-29T14:45:47.902Z,22.3
2024-01-29T14:51:47.359Z,22.1
2024-01-29T14:57:41.526Z,21.9
2024-01-29T15:03:39.228Z,22.3
2024-01-29T15:09:37.406Z,23.1
2024-01-29T15:15:33.451Z,23.8
2024-01-29T15:21:30.179Z,24.4
2024-01-29T15:27:27.778Z,24.9
2024-01-29T15:33:22.892Z,25.6
2024-01-29T15:39:17.918Z,26.1
2024-01-29T15:45:14.949Z,26.4
2024-01-29T15:51:16.521Z,26.4
2024-01-29T15:57:12.139Z,26.5
2024-01-29T16:03:07.318Z,26.5
2024-01-29T16:09:02.175Z,26.7
2024-01-29T16:14:56.647Z,26.8
2024-01-29T16:20:56.013Z,26.9
2024-01-29T16:26:50.061Z,26.9
2024-01-29T16:32:45.486Z,27
2024-01-29T16:38:42.137Z,27
2024-01-29T16:44:39.837Z,27.1
2024-01-29T16:50:36.149Z,27.1
2024-01-29T16:56:31.235Z,27.2
2024-01-29T17:02:27.445Z,27.2
2024-01-29T17:08:23.508Z,27.2
2024-01-29T17:14:21.158Z,27.2
2024-01-29T17:20:20.475Z,27.2
2024-01-29T17:26:14.984Z,27.2
2024-01-29T17:32:09.050Z,27.2
2024-01-29T17:38:06.167Z,27.3
2024-01-29T17:44:02.109Z,27.4
2024-01-29T17:49:57.562Z,27.6
2024-01-29T17:55:55.375Z,27.7
2024-01-29T18:01:50.340Z,27.7
2024-01-29T18:18:51.052Z,27.9
2024-01-29T18:24:30.113Z,28
2024-01-29T18:30:26.960Z,28
2024-01-29T18:36:22.034Z,28.1
2024-01-29T18:42:16.480Z,28.1
2024-01-29T18:48:14.158Z,28.3
2024-01-29T18:54:09.172Z,28.5
2024-01-29T19:00:04.156Z,28.6
2024-01-29T19:06:03.593Z,28.8
2024-01-29T19:12:01.742Z,28.8
2024-01-29T19:17:59.631Z,28.9
2024-01-29T19:23:39.493Z,28.9
2024-01-29T19:29:18.282Z,28.9
2024-01-29T19:34:58.321Z,29
2024-01-29T19:40:53.934Z,28.9
2024-01-29T19:46:48.378Z,28.9
2024-01-29T19:52:46.085Z,28.9
2024-01-29T19:58:40.449Z,28.9
2024-01-29T20:04:36.291Z,28.8
2024-01-29T20:10:33.000Z,28.8
2024-01-29T20:16:28.004Z,28.7
2024-01-29T20:22:24.303Z,28.6
2024-01-29T20:28:20.346Z,28.5
2024-01-29T20:34:14.711Z,28.4
2024-01-29T20:40:11.813Z,28.2
2024-01-29T20:46:09.719Z,27.9
2024-01-29T20:52:06.793Z,27.8
2024-01-29T20:58:13.015Z,27.5
2024-01-29T21:04:08.260Z,27.3
2024-01-29T21:09:49.030Z,27.1
2024-01-29T21:15:46.601Z,26.9
2024-01-29T21:21:41.714Z,26.6
2024-01-29T21:27:36.252Z,26.1
2024-01-29T21:33:33.159Z,25.8
2024-01-29T21:39:11.989Z,25.4
2024-01-29T21:45:06.421Z,25
2024-01-29T21:51:02.016Z,24.6
2024-01-29T21:56:56.658Z,24.3
2024-01-29T22:02:54.168Z,24.5
2024-01-29T22:08:33.348Z,24.8
2024-01-29T22:14:12.839Z,25
2024-01-29T22:20:07.769Z,25.3
2024-01-29T22:25:47.321Z,25.1
2024-01-29T22:31:44.567Z,24.5
2024-01-29T22:37:24.061Z,24.3
2024-01-29T22:43:18.669Z,24.4
2024-01-29T22:48:58.048Z,24.8
2024-01-29T22:54:54.622Z,24.8
2024-01-29T23:00:33.310Z,24.4
2024-01-29T23:06:31.114Z,24
2024-01-29T23:12:25.416Z,23.8
2024-01-29T23:18:19.408Z,24.2
2024-01-29T23:24:01.777Z,24.6
2024-01-29T23:29:55.497Z,24.4
2024-01-29T23:35:50.858Z,23.9
2024-01-29T23:41:44.644Z,23.6
2024-01-29T23:47:38.470Z,23.7
2024-01-29T23:53:02.367Z,24.1
2024-01-29T23:58:41.741Z,24.4
